TSS weather

East 34th Street Heliport
New York, New York, United States

Public forecast

Using degrees Fahrenheit for public forecast. Weather courtesy of forecast.io.

Closest aviation weather report (METAR) to East 34th Street Heliport

Closest report is La Guardia Airport, 5.0 nm (9.2 km) ENE. Retrieved 2020/06/05 01:51 UTC (1 hour ago):

KLGA 050151Z 17007KT 10SM FEW060 OVC160 24/16 A2988 RMK AO2 SLP117 T02390161

Closest aviation forecast (TAF) to East 34th Street Heliport

Closest forecast is La Guardia Airport, 5.0 nm (9.2 km) ENE. Retrieved 2020-06-05 00:46 UTC (2 hours ago):

TAF KLGA 042344Z 0500/0606 18010KT P6SM SCT150 BKN250 FM050400 05005KT 6SM -SHRA BR VCTS SCT025 BKN060CB TEMPO 0506/0509 SHRA SCT015 BKN025 FM050900 05005KT 5SM BR SCT007 BKN015 FM051600 21008KT P6SM SCT025 BKN090 FM051900 16007KT 6SM SHRA BR SCT025 BKN090 PROB30 0519/0523 3SM TS SCT015 BKN025CB FM052300 16007KT 5SM SHRA BR SCT007 BKN015 PROB30 0523/0603 3SM TS SCT015 BKN025CB FM060300 17007KT 3SM BR VCSH BKN007